Time,TemperatureF,DewpointF,PressureIn,WindDirection,WindDirectionDegrees,WindSpeedMPH,WindSpeedGustMPH,Humidity,HourlyPrecipIn,Conditions,Clouds,dailyrainin,SoftwareType,DateUTC
2013-02-04 00:10:00,44.4,36.7,29.87,NNW,337,0.0,-999.0,74,-99.99,,,0.00,Acu-Link.com,2013-02-04 05:10:00,
2013-02-04 00:26:00,43.9,36.8,29.86,NNW,337,0.0,-999.0,76,-99.99,,,0.00,Acu-Link.com,2013-02-04 05:26:00,
2013-02-04 00:41:00,43.0,36.9,29.86,ESE,112,0.0,-999.0,79,-99.99,,,0.00,Acu-Link.com,2013-02-04 05:41:00,
2013-02-04 00:56:00,42.6,37.2,29.86,NNE,22,0.0,-999.0,81,-99.99,,,0.00,Acu-Link.com,2013-02-04 05:56:00,
2013-02-04 01:11:00,42.3,37.8,29.86,ENE,67,0.0,-999.0,84,-99.99,,,0.00,Acu-Link.com,2013-02-04 06:11:00,
2013-02-04 01:27:00,42.1,38.2,29.85,West,270,0.0,-999.0,86,-99.99,,,0.00,Acu-Link.com,2013-02-04 06:27:00,
2013-02-04 01:42:00,41.9,38.3,29.85,West,270,0.0,-999.0,87,-99.99,,,0.00,Acu-Link.com,2013-02-04 06:42:00,
2013-02-04 01:57:00,41.7,38.4,29.85,WNW,292,0.0,-999.0,88,-99.99,,,0.00,Acu-Link.com,2013-02-04 06:57:00,
2013-02-04 02:12:00,41.4,38.9,29.85,ESE,112,0.0,-999.0,91,-99.99,,,0.00,Acu-Link.com,2013-02-04 07:12:00,
2013-02-04 02:28:00,41.4,38.9,29.83,SSE,157,0.0,-999.0,91,-99.99,,,0.00,Acu-Link.com,2013-02-04 07:28:00,
2013-02-04 02:43:00,40.8,38.4,29.84,SSE,157,0.0,-999.0,91,-99.99,,,0.00,Acu-Link.com,2013-02-04 07:43:00,
2013-02-04 02:58:00,40.3,38.1,29.85,East,90,0.0,-999.0,92,-99.99,,,0.00,Acu-Link.com,2013-02-04 07:58:00,
2013-02-04 03:14:00,40.1,38.0,29.85,SW,225,0.0,-999.0,92,-99.99,,,0.00,Acu-Link.com,2013-02-04 08:14:00,
2013-02-04 03:29:00,40.1,38.5,29.84,ESE,112,0.0,-999.0,94,-99.99,,,0.00,Acu-Link.com,2013-02-04 08:29:00,
2013-02-04 03:44:00,40.1,38.8,29.85,SSE,157,0.0,-999.0,95,-99.99,,,0.00,Acu-Link.com,2013-02-04 08:44:00,
2013-02-04 03:59:00,39.9,38.6,29.85,South,180,0.0,-999.0,95,-99.99,,,0.00,Acu-Link.com,2013-02-04 08:59:00,
2013-02-04 04:15:00,39.7,38.4,29.85,SSE,157,0.0,-999.0,95,-99.99,,,0.00,Acu-Link.com,2013-02-04 09:15:00,
2013-02-04 04:30:00,39.6,38.2,29.85,SSE,157,0.0,-999.0,95,-99.99,,,0.00,Acu-Link.com,2013-02-04 09:30:00,
2013-02-04 04:45:00,39.4,38.3,29.85,SE,135,0.0,-999.0,96,-99.99,,,0.00,Acu-Link.com,2013-02-04 09:45:00,
2013-02-04 05:01:00,39.0,38.0,29.86,WSW,247,0.0,-999.0,96,-99.99,,,0.00,Acu-Link.com,2013-02-04 10:01:00,
2013-02-04 05:16:00,38.7,37.6,29.86,West,270,0.0,-999.0,96,-99.99,,,0.00,Acu-Link.com,2013-02-04 10:16:00,
2013-02-04 05:31:00,38.5,37.7,29.87,East,90,0.0,-999.0,97,-99.99,,,0.00,Acu-Link.com,2013-02-04 10:31:00,
2013-02-04 05:46:00,38.3,37.5,29.87,SE,135,0.0,-999.0,97,-99.99,,,0.00,Acu-Link.com,2013-02-04 10:46:00,
2013-02-04 06:02:00,37.9,37.2,29.88,East,90,0.0,-999.0,97,-99.99,,,0.00,Acu-Link.com,2013-02-04 11:02:00,
2013-02-04 06:17:00,37.9,37.2,29.88,ESE,112,0.0,-999.0,97,-99.99,,,0.00,Acu-Link.com,2013-02-04 11:17:00,
2013-02-04 06:32:00,37.6,36.8,29.88,SSE,157,0.0,-999.0,97,-99.99,,,0.00,Acu-Link.com,2013-02-04 11:32:00,
2013-02-04 06:47:00,37.4,36.6,29.88,ESE,112,0.0,-999.0,97,-99.99,,,0.00,Acu-Link.com,2013-02-04 11:47:00,
2013-02-04 07:03:00,37.2,36.4,29.89,East,90,0.0,-999.0,97,-99.99,,,0.00,Acu-Link.com,2013-02-04 12:03:00,
2013-02-04 07:18:00,36.9,36.1,29.89,ESE,112,0.0,-999.0,97,-99.99,,,0.00,Acu-Link.com,2013-02-04 12:18:00,
2013-02-04 07:33:00,37.0,36.3,29.88,ENE,67,0.0,-999.0,97,-99.99,,,0.00,Acu-Link.com,2013-02-04 12:33:00,
2013-02-04 07:49:00,37.8,37.2,29.89,SSE,157,0.0,-999.0,98,-99.99,,,0.00,Acu-Link.com,2013-02-04 12:49:00,
2013-02-04 08:04:00,38.8,38.3,29.89,ESE,112,0.0,-999.0,98,-99.99,,,0.00,Acu-Link.com,2013-02-04 13:04:00,
2013-02-04 08:19:00,40.3,39.5,29.89,SSE,157,0.0,-999.0,97,-99.99,,,0.00,Acu-Link.com,2013-02-04 13:19:00,
2013-02-04 08:35:00,42.3,41.2,29.90,SE,135,0.0,-999.0,96,-99.99,,,0.00,Acu-Link.com,2013-02-04 13:35:00,
2013-02-04 08:50:00,47.3,43.6,29.89,SSE,157,0.0,-999.0,87,-99.99,,,0.00,Acu-Link.com,2013-02-04 13:50:00,
2013-02-04 09:05:00,49.1,43.2,29.88,East,90,0.0,-999.0,80,-99.99,,,0.00,Acu-Link.com,2013-02-04 14:05:00,
2013-02-04 09:21:00,50.7,41.7,29.89,NNE,22,0.0,-999.0,71,-99.99,,,0.00,Acu-Link.com,2013-02-04 14:21:00,
2013-02-04 09:36:00,52.5,41.1,29.89,ESE,112,1.1,-999.0,65,-99.99,,,0.00,Acu-Link.com,2013-02-04 14:36:00,
2013-02-04 09:51:00,53.1,40.8,29.88,NE,45,1.1,-999.0,63,-99.99,,,0.00,Acu-Link.com,2013-02-04 14:51:00,
2013-02-04 10:06:00,54.5,39.1,29.89,East,90,0.0,-999.0,56,-99.99,,,0.00,Acu-Link.com,2013-02-04 15:06:00,
2013-02-04 10:22:00,56.3,38.4,29.89,ENE,67,0.0,-999.0,51,-99.99,,,0.00,Acu-Link.com,2013-02-04 15:22:00,
2013-02-04 10:37:00,57.0,38.1,29.89,West,270,0.0,-999.0,49,-99.99,,,0.00,Acu-Link.com,2013-02-04 15:37:00,
2013-02-04 10:52:00,57.7,37.6,29.89,SSE,157,0.0,-999.0,47,-99.99,,,0.00,Acu-Link.com,2013-02-04 15:52:00,
2013-02-04 11:08:00,60.6,38.6,29.90,NE,45,0.0,-999.0,44,-99.99,,,0.00,Acu-Link.com,2013-02-04 16:08:00,
2013-02-04 11:23:00,62.2,40.6,29.88,SSE,157,2.2,-999.0,45,-99.99,,,0.00,Acu-Link.com,2013-02-04 16:23:00,
2013-02-04 11:38:00,64.0,38.6,29.88,WNW,292,2.2,-999.0,39,-99.99,,,0.00,Acu-Link.com,2013-02-04 16:38:00,
2013-02-04 11:54:00,62.8,36.8,29.88,SSW,202,1.6,-999.0,38,-99.99,,,0.00,Acu-Link.com,2013-02-04 16:54:00,
2013-02-04 12:09:00,62.6,36.6,29.88,SSE,157,1.6,-999.0,38,-99.99,,,0.00,Acu-Link.com,2013-02-04 17:09:00,
2013-02-04 12:24:00,63.7,36.9,29.87,ENE,67,1.6,-999.0,37,-99.99,,,0.00,Acu-Link.com,2013-02-04 17:24:00,
2013-02-04 12:39:00,64.6,36.3,29.87,East,90,1.1,-999.0,35,-99.99,,,0.00,Acu-Link.com,2013-02-04 17:39:00,
2013-02-04 12:54:00,66.7,36.7,29.86,NNW,337,0.0,-999.0,33,-99.99,,,0.00,Acu-Link.com,2013-02-04 17:54:00,
2013-02-04 13:10:00,65.8,37.4,29.85,NE,45,2.7,-999.0,35,-99.99,,,0.00,Acu-Link.com,2013-02-04 18:10:00,
2013-02-04 13:25:00,66.6,37.3,29.84,NNE,22,1.6,-999.0,34,-99.99,,,0.00,Acu-Link.com,2013-02-04 18:25:00,
2013-02-04 13:40:00,66.0,36.8,29.83,North,0,1.6,-999.0,34,-99.99,,,0.00,Acu-Link.com,2013-02-04 18:40:00,
2013-02-04 13:56:00,68.2,36.4,29.82,North,0,2.7,-999.0,31,-99.99,,,0.00,Acu-Link.com,2013-02-04 18:56:00,
2013-02-04 14:19:00,65.5,35.6,29.82,NNE,22,1.1,-999.0,33,-99.99,,,0.00,Acu-Link.com,2013-02-04 19:19:00,
2013-02-04 14:34:00,64.9,34.4,29.83,NNE,22,0.0,-999.0,32,-99.99,,,0.00,Acu-Link.com,2013-02-04 19:34:00,
2013-02-04 14:49:00,65.1,35.3,29.84,NNW,337,1.6,-999.0,33,-99.99,,,0.00,Acu-Link.com,2013-02-04 19:49:00,
2013-02-04 15:05:00,66.4,37.2,29.84,ESE,112,0.0,-999.0,34,-99.99,,,0.00,Acu-Link.com,2013-02-04 20:05:00,
2013-02-04 15:20:00,67.1,35.5,29.83,WNW,292,2.2,-999.0,31,-99.99,,,0.00,Acu-Link.com,2013-02-04 20:20:00,
2013-02-04 15:35:00,66.9,36.1,29.83,West,270,0.0,-999.0,32,-99.99,,,0.00,Acu-Link.com,2013-02-04 20:35:00,
2013-02-04 15:51:00,66.4,36.4,29.83,SSW,202,0.0,-999.0,33,-99.99,,,0.00,Acu-Link.com,2013-02-04 20:51:00,
2013-02-04 16:06:00,66.4,37.2,29.82,NE,45,1.1,-999.0,34,-99.99,,,0.00,Acu-Link.com,2013-02-04 21:06:00,
2013-02-04 16:21:00,65.7,36.5,29.82,West,270,0.0,-999.0,34,-99.99,,,0.00,Acu-Link.com,2013-02-04 21:21:00,
2013-02-04 16:37:00,65.5,35.6,29.83,SSE,157,0.0,-999.0,33,-99.99,,,0.00,Acu-Link.com,2013-02-04 21:37:00,
2013-02-04 16:52:00,64.6,37.0,29.83,NNW,337,1.6,-999.0,36,-99.99,,,0.00,Acu-Link.com,2013-02-04 21:52:00,
2013-02-04 17:07:00,64.0,38.6,29.84,North,0,0.0,-999.0,39,-99.99,,,0.00,Acu-Link.com,2013-02-04 22:07:00,
2013-02-04 17:22:00,63.1,39.1,29.83,East,90,0.0,-999.0,41,-99.99,,,0.00,Acu-Link.com,2013-02-04 22:22:00,
2013-02-04 17:38:00,61.7,41.8,29.83,ESE,112,0.0,-999.0,48,-99.99,,,0.00,Acu-Link.com,2013-02-04 22:38:00,
2013-02-04 17:53:00,60.6,41.9,29.84,WSW,247,0.0,-999.0,50,-99.99,,,0.00,Acu-Link.com,2013-02-04 22:53:00,
2013-02-04 18:08:00,59.9,41.2,29.83,ESE,112,0.0,-999.0,50,-99.99,,,0.00,Acu-Link.com,2013-02-04 23:08:00,
2013-02-04 18:24:00,57.9,39.9,29.83,ESE,112,0.0,-999.0,51,-99.99,,,0.00,Acu-Link.com,2013-02-04 23:24:00,
2013-02-04 18:39:00,55.4,40.0,29.83,SE,135,0.0,-999.0,56,-99.99,,,0.00,Acu-Link.com,2013-02-04 23:39:00,
2013-02-04 18:54:00,55.4,41.3,29.82,East,90,0.0,-999.0,59,-99.99,,,0.00,Acu-Link.com,2013-02-04 23:54:00,
2013-02-04 19:10:00,54.1,41.0,29.82,SE,135,0.0,-999.0,61,-99.99,,,0.00,Acu-Link.com,2013-02-05 00:10:00,
2013-02-04 19:25:00,53.2,41.4,29.83,SE,135,0.0,-999.0,64,-99.99,,,0.00,Acu-Link.com,2013-02-05 00:25:00,
2013-02-04 19:40:00,53.1,42.0,29.83,SSE,157,0.0,-999.0,66,-99.99,,,0.00,Acu-Link.com,2013-02-05 00:40:00,
2013-02-04 19:56:00,52.5,41.9,29.84,SE,135,0.0,-999.0,67,-99.99,,,0.00,Acu-Link.com,2013-02-05 00:56:00,
2013-02-04 20:11:00,51.8,42.3,29.83,SE,135,0.0,-999.0,70,-99.99,,,0.00,Acu-Link.com,2013-02-05 01:11:00,
2013-02-04 20:26:00,51.6,42.9,29.83,SSE,157,0.0,-999.0,72,-99.99,,,0.00,Acu-Link.com,2013-02-05 01:26:00,
2013-02-04 20:42:00,51.6,43.3,29.84,SSE,157,0.0,-999.0,73,-99.99,,,0.00,Acu-Link.com,2013-02-05 01:42:00,
2013-02-04 20:57:00,51.4,44.1,29.85,SSE,157,0.0,-999.0,76,-99.99,,,0.00,Acu-Link.com,2013-02-05 01:57:00,
2013-02-04 21:12:00,51.3,44.3,29.85,SSE,157,0.0,-999.0,77,-99.99,,,0.00,Acu-Link.com,2013-02-05 02:12:00,
2013-02-04 21:28:00,50.9,44.6,29.86,NNE,22,0.0,-999.0,79,-99.99,,,0.00,Acu-Link.com,2013-02-05 02:28:00,
2013-02-04 21:43:00,50.4,44.8,29.86,East,90,0.0,-999.0,81,-99.99,,,0.00,Acu-Link.com,2013-02-05 02:43:00,
2013-02-04 21:58:00,48.9,43.0,29.85,SSE,157,0.0,-999.0,80,-99.99,,,0.00,Acu-Link.com,2013-02-05 02:58:00,
2013-02-04 22:13:00,48.6,42.7,29.86,SE,135,0.0,-999.0,80,-99.99,,,0.00,Acu-Link.com,2013-02-05 03:13:00,
2013-02-04 22:28:00,48.2,42.6,29.85,ESE,112,0.0,-999.0,81,-99.99,,,0.00,Acu-Link.com,2013-02-05 03:28:00,
2013-02-04 22:44:00,47.5,42.9,29.86,East,90,0.0,-999.0,84,-99.99,,,0.00,Acu-Link.com,2013-02-05 03:44:00,
2013-02-04 22:59:00,47.3,42.7,29.85,ESE,112,0.0,-999.0,84,-99.99,,,0.00,Acu-Link.com,2013-02-05 03:59:00,
2013-02-04 23:14:00,47.1,42.5,29.85,ESE,112,0.0,-999.0,84,-99.99,,,0.00,Acu-Link.com,2013-02-05 04:14:00,
2013-02-04 23:30:00,46.9,43.3,29.84,SSE,157,0.0,-999.0,87,-99.99,,,0.00,Acu-Link.com,2013-02-05 04:30:00,
2013-02-04 23:45:00,46.8,42.5,29.83,SE,135,0.0,-999.0,85,-99.99,,,0.00,Acu-Link.com,2013-02-05 04:45:00,